Time;durP1;ratioP1;P1;durP2;ratioP2;P2;SDS_P1;SDS_P2;PMS_P1;PMS_P2;Temp;Humidity;BMP_temperature;BMP_pressure;BME280_temperature;BME280_humidity;BME280_pressure;Samples;Min_cycle;Max_cycle;Signal;HPM_P1;HPM_P2
2021/07/22 00:00:41;;;;;;;15.40;13.77;;;16.70;99.90;;;;;;5028430;28;20076;-49
2021/07/22 00:03:08;;;;;;;17.50;14.95;;;16.70;99.90;;;;;;5028392;28;20087;-48
2021/07/22 00:05:34;;;;;;;17.52;14.25;;;16.70;99.90;;;;;;5027157;28;20140;-47
2021/07/22 00:08:03;;;;;;;15.48;13.88;;;16.70;99.90;;;;;;5028509;28;20383;-52
2021/07/22 00:10:29;;;;;;;15.52;13.95;;;16.70;99.90;;;;;;5029372;28;20053;-53
2021/07/22 00:12:56;;;;;;;16.17;14.48;;;16.70;99.90;;;;;;5028508;28;20115;-48
2021/07/22 00:15:24;;;;;;;18.25;14.52;;;16.70;99.90;;;;;;5027312;28;20053;-52
2021/07/22 00:17:50;;;;;;;16.52;13.80;;;16.70;99.90;;;;;;5028075;28;20085;-48
2021/07/22 00:20:16;;;;;;;16.02;13.20;;;16.70;99.90;;;;;;5028531;28;20053;-48
2021/07/22 00:22:43;;;;;;;16.65;13.95;;;16.70;99.90;;;;;;5029122;28;20071;-48
2021/07/22 00:25:09;;;;;;;15.70;13.95;;;16.60;99.90;;;;;;5027663;28;20053;-45
2021/07/22 00:27:38;;;;;;;16.45;13.27;;;16.60;99.90;;;;;;5028179;28;20049;-46
2021/07/22 00:30:08;;;;;;;15.60;13.75;;;16.60;99.90;;;;;;5026786;28;20049;-48
2021/07/22 00:32:37;;;;;;;15.63;13.77;;;16.60;99.90;;;;;;5027112;28;20221;-51
2021/07/22 00:35:07;;;;;;;17.63;14.75;;;16.60;99.90;;;;;;5037801;28;20140;-53
2021/07/22 00:37:36;;;;;;;15.90;14.23;;;16.60;99.90;;;;;;5027043;28;20048;-48
2021/07/22 00:40:02;;;;;;;15.48;14.07;;;16.60;99.90;;;;;;5030050;28;20128;-46
2021/07/22 00:42:57;;;;;;;17.17;14.82;;;16.60;99.90;;;;;;5026949;28;20061;-50
2021/07/22 00:45:24;;;;;;;16.52;14.13;;;16.60;99.90;;;;;;5011059;28;20066;-48
2021/07/22 00:47:51;;;;;;;17.60;14.73;;;16.70;99.90;;;;;;5032180;28;20134;-50
2021/07/22 00:50:18;;;;;;;15.68;13.95;;;16.70;99.90;;;;;;5027994;28;20049;-52
2021/07/22 00:52:44;;;;;;;17.00;13.65;;;16.70;99.90;;;;;;5026395;28;20103;-51
2021/07/22 00:55:14;;;;;;;15.73;14.13;;;16.80;99.90;;;;;;5026227;28;20171;-48
2021/07/22 00:57:43;;;;;;;16.15;14.38;;;16.80;99.90;;;;;;5024993;28;20057;-54
2021/07/22 01:00:12;;;;;;;16.95;15.10;;;16.80;99.90;;;;;;5026663;28;20521;-46
2021/07/22 01:02:42;;;;;;;16.90;14.13;;;16.80;99.90;;;;;;5026572;28;20096;-49
2021/07/22 01:05:10;;;;;;;16.08;14.38;;;16.80;99.90;;;;;;5042636;28;20279;-45
2021/07/22 01:07:37;;;;;;;17.70;13.90;;;16.80;99.90;;;;;;5028248;28;20501;-52
2021/07/22 01:10:08;;;;;;;15.80;14.13;;;16.80;99.90;;;;;;5026284;28;20053;-47
2021/07/22 01:12:36;;;;;;;16.83;14.68;;;16.80;99.90;;;;;;5036904;28;20532;-49
2021/07/22 01:15:03;;;;;;;15.60;14.10;;;16.70;99.90;;;;;;5026461;28;20152;-54
2021/07/22 01:17:45;;;;;;;17.17;15.27;;;16.80;99.90;;;;;;5022241;28;20054;-47
2021/07/22 01:20:18;;;;;;;18.40;14.00;;;16.80;99.90;;;;;;5026651;28;20045;-48
2021/07/22 01:22:46;;;;;;;16.88;15.18;;;16.80;99.90;;;;;;5042626;28;20057;-49
2021/07/22 01:25:15;;;;;;;16.58;14.88;;;16.80;99.90;;;;;;5027624;28;20075;-50
2021/07/22 01:27:42;;;;;;;16.73;15.00;;;16.80;99.90;;;;;;5028895;28;20056;-50
2021/07/22 01:30:14;;;;;;;16.25;14.55;;;16.80;99.90;;;;;;5018224;28;20049;-49
2021/07/22 01:32:45;;;;;;;18.20;14.57;;;16.80;99.90;;;;;;5041902;28;20461;-46
2021/07/22 01:35:13;;;;;;;16.38;14.00;;;16.70;99.90;;;;;;5041685;28;20068;-54
2021/07/22 01:37:47;;;;;;;16.52;14.73;;;16.70;99.90;;;;;;5042460;28;20045;-50
2021/07/22 01:40:16;;;;;;;17.40;14.43;;;16.70;99.90;;;;;;5026214;28;20068;-46
2021/07/22 01:42:45;;;;;;;17.20;13.88;;;16.70;99.90;;;;;;5026288;28;20478;-48
2021/07/22 01:45:14;;;;;;;17.83;15.35;;;16.70;99.90;;;;;;5025993;28;20123;-53
2021/07/22 01:47:45;;;;;;;16.63;14.93;;;16.60;99.90;;;;;;5023578;28;20711;-47
2021/07/22 01:50:14;;;;;;;17.15;13.82;;;16.60;99.90;;;;;;5021220;28;20951;-44
2021/07/22 01:52:42;;;;;;;16.88;14.63;;;16.60;99.90;;;;;;5036827;28;20072;-47
2021/07/22 01:55:10;;;;;;;18.85;15.23;;;16.60;99.90;;;;;;5025684;28;20124;-45
2021/07/22 01:57:47;;;;;;;17.70;14.85;;;16.60;99.90;;;;;;5029536;28;20049;-46
2021/07/22 02:00:13;;;;;;;20.10;16.08;;;16.60;99.90;;;;;;5025320;28;20056;-46
2021/07/22 02:02:53;;;;;;;16.55;14.85;;;16.60;99.90;;;;;;5039948;28;20076;-45
2021/07/22 02:05:24;;;;;;;17.08;14.68;;;16.60;99.90;;;;;;5023337;28;20046;-45
2021/07/22 02:07:51;;;;;;;16.23;14.60;;;16.60;99.90;;;;;;5024687;28;20140;-46
2021/07/22 02:10:20;;;;;;;16.50;14.80;;;16.60;99.90;;;;;;5040419;28;20072;-49
2021/07/22 02:12:46;;;;;;;16.00;14.27;;;16.50;99.90;;;;;;5020762;28;20049;-52
2021/07/22 02:15:17;;;;;;;16.00;14.35;;;16.50;99.90;;;;;;5016582;28;20045;-44
2021/07/22 02:17:43;;;;;;;15.70;14.15;;;16.50;99.90;;;;;;5025177;28;20832;-47
2021/07/22 02:20:09;;;;;;;17.02;14.88;;;16.50;99.90;;;;;;5026572;28;20049;-48
2021/07/22 02:22:37;;;;;;;16.35;13.85;;;16.50;99.90;;;;;;5023650;28;20553;-46
2021/07/22 02:25:39;;;;;;;18.55;15.00;;;16.50;99.90;;;;;;5012439;28;20046;-46
2021/07/22 02:28:06;;;;;;;17.38;15.10;;;16.50;99.90;;;;;;4987289;28;20487;-50
2021/07/22 02:30:33;;;;;;;16.33;14.57;;;16.50;99.90;;;;;;4995824;28;20165;-47
2021/07/22 02:32:59;;;;;;;16.13;14.52;;;16.40;99.90;;;;;;5004323;28;20079;-46
2021/07/22 02:35:29;;;;;;;16.40;14.70;;;16.40;99.90;;;;;;5001696;28;20164;-47
2021/07/22 02:38:14;;;;;;;16.48;14.73;;;16.40;99.90;;;;;;5004173;28;20049;-44
2021/07/22 02:40:43;;;;;;;18.23;13.60;;;16.40;99.90;;;;;;4990359;28;20045;-50
2021/07/22 02:43:11;;;;;;;19.10;14.38;;;16.40;99.90;;;;;;5016751;28;20046;-48
2021/07/22 02:45:38;;;;;;;17.15;14.85;;;16.40;99.90;;;;;;5003034;28;20069;-46
2021/07/22 02:48:09;;;;;;;17.73;14.25;;;16.40;99.90;;;;;;4987604;28;20055;-47
2021/07/22 02:50:35;;;;;;;19.33;16.02;;;16.30;99.90;;;;;;4967831;28;20212;-46
2021/07/22 02:53:05;;;;;;;20.13;15.30;;;16.20;99.90;;;;;;4967999;28;20153;-44
2021/07/22 02:55:37;;;;;;;;;;;16.20;99.90;;;;;;4995839;28;20042;-49
2021/07/22 02:58:07;;;;;;;18.38;15.25;;;16.10;99.90;;;;;;5002712;28;19925;-52
2021/07/22 03:00:41;;;;;;;17.98;16.02;;;16.10;99.90;;;;;;5016884;28;20045;-55
2021/07/22 03:03:08;;;;;;;18.63;15.20;;;16.10;99.90;;;;;;5024347;28;20148;-51
2021/07/22 03:05:35;;;;;;;19.10;16.00;;;16.00;99.90;;;;;;5040512;28;20045;-48
2021/07/22 03:08:04;;;;;;;19.40;17.35;;;16.00;99.90;;;;;;5023702;28;20518;-49
2021/07/22 03:10:33;;;;;;;17.65;15.63;;;16.00;99.90;;;;;;5040594;28;20053;-47
2021/07/22 03:13:00;;;;;;;20.13;16.40;;;16.00;99.90;;;;;;5023829;28;20458;-48
2021/07/22 03:15:28;;;;;;;18.52;16.00;;;15.90;99.90;;;;;;5040228;28;20570;-53
2021/07/22 03:17:55;;;;;;;18.75;16.15;;;16.00;99.90;;;;;;5031481;28;20524;-48
2021/07/22 03:20:24;;;;;;;21.10;16.80;;;16.00;99.90;;;;;;5027286;28;20611;-52
2021/07/22 03:22:54;;;;;;;22.13;18.23;;;15.90;99.90;;;;;;5023757;28;20062;-47
2021/07/22 03:25:32;;;;;;;20.25;17.73;;;15.90;99.90;;;;;;5015682;28;20084;-49
2021/07/22 03:28:37;;;;;;;19.33;16.73;;;15.90;99.90;;;;;;5020798;28;20413;-49
2021/07/22 03:31:15;;;;;;;20.75;17.42;;;16.00;99.90;;;;;;5042789;28;20062;-53
2021/07/22 03:33:59;;;;;;;20.13;17.13;;;16.00;99.90;;;;;;5029064;28;20825;-47
2021/07/22 03:36:32;;;;;;;19.75;17.25;;;16.00;99.90;;;;;;5028002;28;20482;-47
2021/07/22 03:39:07;;;;;;;20.90;16.77;;;16.00;99.90;;;;;;5026229;28;20060;-49
2021/07/22 03:41:33;;;;;;;18.83;16.42;;;16.00;99.90;;;;;;5028502;28;20049;-48
2021/07/22 03:44:18;;;;;;;21.92;16.73;;;16.10;99.90;;;;;;5026998;28;20053;-54
2021/07/22 03:46:44;;;;;;;19.75;17.27;;;16.00;99.90;;;;;;5027701;28;20041;-48
2021/07/22 03:49:13;;;;;;;20.25;16.92;;;16.00;99.90;;;;;;5027056;28;20053;-50
2021/07/22 03:51:39;;;;;;;18.33;15.48;;;16.10;99.90;;;;;;5027855;28;20049;-45
2021/07/22 03:54:06;;;;;;;19.92;16.77;;;16.10;99.90;;;;;;5027795;28;20057;-50
2021/07/22 03:56:36;;;;;;;20.55;17.48;;;16.10;99.90;;;;;;5044270;28;20053;-51
2021/07/22 03:59:17;;;;;;;21.27;17.00;;;16.10;99.90;;;;;;5027151;28;20160;-47
2021/07/22 04:01:44;;;;;;;18.80;16.70;;;16.10;99.90;;;;;;5049199;28;20123;-48
2021/07/22 04:04:35;;;;;;;18.13;16.17;;;16.10;99.90;;;;;;5028189;28;20049;-47
2021/07/22 04:07:01;;;;;;;19.13;16.75;;;16.20;99.90;;;;;;5027827;28;20300;-51
2021/07/22 04:09:45;;;;;;;19.60;16.50;;;16.20;99.90;;;;;;5028184;28;20037;-46
2021/07/22 04:12:30;;;;;;;21.35;17.00;;;16.20;99.90;;;;;;5023506;28;20104;-48
2021/07/22 04:15:27;;;;;;;20.73;17.92;;;16.20;99.90;;;;;;5012421;28;20053;-46
2021/07/22 04:18:02;;;;;;;18.58;16.58;;;16.20;99.90;;;;;;5008396;28;20152;-50
2021/07/22 04:20:28;;;;;;;19.25;16.83;;;16.30;99.90;;;;;;5027998;28;20120;-53
2021/07/22 04:23:30;;;;;;;20.55;17.80;;;16.30;99.90;;;;;;5044475;28;20045;-49
2021/07/22 04:25:58;;;;;;;19.00;16.33;;;16.30;99.90;;;;;;5044611;28;20160;-50
2021/07/22 04:28:36;;;;;;;21.00;17.38;;;16.30;99.90;;;;;;5041826;28;20041;-47
2021/07/22 04:31:02;;;;;;;21.63;17.65;;;16.30;99.90;;;;;;5045569;28;20061;-47
2021/07/22 04:33:48;;;;;;;19.70;16.83;;;16.40;99.90;;;;;;5046611;28;20071;-48
2021/07/22 04:36:52;;;;;;;21.20;17.27;;;16.40;99.90;;;;;;5034227;28;20645;-50
2021/07/22 04:39:44;;;;;;;20.83;17.88;;;16.40;99.90;;;;;;5042702;28;20060;-48
2021/07/22 04:42:37;;;;;;;19.15;16.80;;;16.50;99.90;;;;;;4998159;28;20148;-50
2021/07/22 04:45:29;;;;;;;;;;;16.60;99.90;;;;;;4946957;29;20125;-48
2021/07/22 04:48:34;;;;;;;19.75;17.05;;;16.60;99.90;;;;;;4985889;28;20286;-52
2021/07/22 04:51:19;;;;;;;21.48;17.05;;;16.60;99.90;;;;;;4985429;28;20062;-50
2021/07/22 04:54:04;;;;;;;20.40;16.67;;;16.60;99.90;;;;;;4981129;28;20069;-49
2021/07/22 04:56:30;;;;;;;20.23;17.85;;;16.70;99.90;;;;;;4988792;28;21095;-50
2021/07/22 04:58:57;;;;;;;20.95;16.25;;;16.70;99.90;;;;;;4968791;28;20440;-50
2021/07/22 05:01:25;;;;;;;23.38;17.33;;;16.70;99.90;;;;;;4985450;28;20875;-50
2021/07/22 05:03:51;;;;;;;22.40;16.92;;;16.80;99.90;;;;;;4969099;28;20054;-51
2021/07/22 05:06:19;;;;;;;24.00;17.23;;;16.80;99.90;;;;;;4971947;28;20082;-46
2021/07/22 05:09:05;;;;;;;25.83;17.38;;;16.80;99.90;;;;;;4960989;28;20820;-58
2021/07/22 05:11:52;;;;;;;26.42;17.45;;;16.90;99.90;;;;;;4987018;28;20269;-53
2021/07/22 05:14:36;;;;;;;24.65;17.13;;;16.90;99.90;;;;;;4970163;28;20054;-59
2021/07/22 05:17:23;;;;;;;23.27;16.38;;;17.00;99.90;;;;;;4986264;28;20101;-52
2021/07/22 05:19:52;;;;;;;23.20;16.48;;;17.10;99.90;;;;;;4973539;28;20689;-52
2021/07/22 05:23:00;;;;;;;20.77;16.30;;;17.20;99.90;;;;;;5010630;28;20140;-53
2021/07/22 05:25:43;;;;;;;22.15;16.83;;;17.30;99.90;;;;;;5034975;28;20050;-53
2021/07/22 05:28:39;;;;;;;22.23;16.77;;;17.40;99.90;;;;;;5018744;28;20137;-57
2021/07/22 05:31:26;;;;;;;22.17;16.77;;;17.50;99.90;;;;;;5002974;28;20092;-55
2021/07/22 05:34:15;;;;;;;18.55;15.77;;;17.50;99.90;;;;;;4965250;28;20363;-53
2021/07/22 05:37:10;;;;;;;18.95;16.00;;;17.50;99.90;;;;;;4913053;29;20052;-54
2021/07/22 05:39:57;;;;;;;15.93;14.00;;;17.60;99.90;;;;;;4931935;29;20059;-53
2021/07/22 05:42:23;;;;;;;17.38;15.50;;;17.60;99.90;;;;;;4927012;29;20603;-53
2021/07/22 05:44:49;;;;;;;17.40;14.57;;;17.60;99.90;;;;;;4927163;29;20174;-54
2021/07/22 05:47:17;;;;;;;21.67;15.65;;;17.60;99.90;;;;;;4910893;29;20067;-55
2021/07/22 05:49:43;;;;;;;18.70;15.85;;;17.70;99.90;;;;;;4931546;29;20051;-49
2021/07/22 05:52:10;;;;;;;18.90;14.55;;;17.70;99.90;;;;;;4930198;29;20059;-51
2021/07/22 05:54:36;;;;;;;18.90;15.38;;;17.80;99.90;;;;;;4911581;29;20661;-56
2021/07/22 05:57:03;;;;;;;17.65;14.57;;;17.80;99.90;;;;;;4927227;29;20051;-48
2021/07/22 05:59:29;;;;;;;16.60;14.43;;;17.80;99.90;;;;;;4927145;29;20156;-49
2021/07/22 06:01:55;;;;;;;18.15;15.38;;;17.80;99.90;;;;;;4927259;29;20052;-55
2021/07/22 06:04:21;;;;;;;17.00;14.40;;;17.90;99.90;;;;;;4930413;29;20070;-52
2021/07/22 06:06:50;;;;;;;17.25;14.20;;;18.10;99.90;;;;;;4906869;29;20063;-49
2021/07/22 06:09:16;;;;;;;15.73;13.45;;;18.10;99.90;;;;;;4890072;29;20449;-53
2021/07/22 06:11:42;;;;;;;39.53;31.67;;;18.10;99.90;;;;;;4917008;29;20109;-51
2021/07/22 06:14:08;;;;;;;28.65;21.30;;;18.20;99.90;;;;;;4979839;28;20105;-58
2021/07/22 06:16:35;;;;;;;26.52;20.75;;;18.30;99.90;;;;;;5029640;28;20041;-50
2021/07/22 06:19:01;;;;;;;17.55;13.77;;;18.30;99.90;;;;;;5027186;28;20042;-55
2021/07/22 06:21:27;;;;;;;17.60;15.68;;;18.40;99.90;;;;;;5026980;28;20053;-50
2021/07/22 06:23:53;;;;;;;29.25;25.95;;;18.40;99.90;;;;;;5027072;28;20152;-60
2021/07/22 06:26:20;;;;;;;33.95;30.33;;;18.50;99.90;;;;;;5026219;28;20555;-50
2021/07/22 06:28:48;;;;;;;25.77;22.98;;;18.60;99.90;;;;;;5033043;28;20064;-51
2021/07/22 06:31:14;;;;;;;17.27;14.80;;;18.60;99.90;;;;;;5009931;28;20057;-48
2021/07/22 06:33:40;;;;;;;324.70;283.33;;;18.70;99.90;;;;;;5022681;28;20103;-56
2021/07/22 06:36:06;;;;;;;15.82;12.63;;;18.70;99.90;;;;;;5023372;28;20414;-50
2021/07/22 06:38:33;;;;;;;48.80;43.58;;;18.80;99.90;;;;;;5026211;28;20506;-51
2021/07/22 06:41:01;;;;;;;10.95;9.60;;;18.90;99.90;;;;;;5026303;28;20057;-58
2021/07/22 06:43:29;;;;;;;24.08;21.52;;;19.00;99.90;;;;;;5026259;28;20487;-56
2021/07/22 06:45:56;;;;;;;28.00;24.23;;;19.00;99.90;;;;;;5024965;28;20068;-56
2021/07/22 06:48:22;;;;;;;11.85;9.65;;;19.10;99.90;;;;;;5007739;28;20046;-51
2021/07/22 06:50:49;;;;;;;18.83;14.88;;;19.10;99.90;;;;;;5006668;28;20150;-52
2021/07/22 06:53:20;;;;;;;11.73;9.60;;;19.20;99.90;;;;;;5016730;28;20053;-53
2021/07/22 06:55:52;;;;;;;19.25;17.15;;;19.20;99.90;;;;;;5029723;28;20095;-51
2021/07/22 06:58:19;;;;;;;47.53;42.40;;;19.40;99.90;;;;;;5030274;28;20060;-55
2021/07/22 07:00:46;;;;;;;11.95;8.77;;;19.50;99.90;;;;;;5030132;28;20848;-54
2021/07/22 07:03:12;;;;;;;10.77;7.65;;;19.50;99.90;;;;;;5029853;28;20049;-52
2021/07/22 07:05:38;;;;;;;20.20;17.95;;;19.60;99.90;;;;;;5025280;28;20171;-51
2021/07/22 07:08:05;;;;;;;14.57;12.00;;;19.70;99.90;;;;;;5029872;28;20073;-52
2021/07/22 07:10:31;;;;;;;14.73;12.68;;;19.80;99.90;;;;;;5030359;28;20075;-56
2021/07/22 07:12:57;;;;;;;11.88;7.13;;;19.80;99.90;;;;;;5030366;28;20053;-50
2021/07/22 07:15:29;;;;;;;;;;;19.90;99.90;;;;;;5030587;28;20060;-53
2021/07/22 07:17:57;;;;;;;14.70;13.10;;;19.90;99.90;;;;;;5035997;28;19975;-56
2021/07/22 07:20:25;;;;;;;13.55;7.15;;;20.00;99.90;;;;;;5029246;28;20444;-53
2021/07/22 07:22:53;;;;;;;8.88;6.50;;;20.20;99.90;;;;;;5010179;28;20050;-53
2021/07/22 07:25:19;;;;;;;8.48;5.38;;;20.20;99.90;;;;;;5013401;28;20045;-52
2021/07/22 07:27:46;;;;;;;11.73;8.30;;;20.40;99.90;;;;;;5030032;28;20105;-52
2021/07/22 07:30:13;;;;;;;8.38;6.90;;;20.50;99.90;;;;;;5029572;28;20304;-53
2021/07/22 07:32:39;;;;;;;8.02;5.25;;;20.50;99.90;;;;;;5033934;28;20124;-52
2021/07/22 07:35:05;;;;;;;8.15;4.72;;;20.50;99.90;;;;;;5029790;28;20060;-52
2021/07/22 07:37:32;;;;;;;6.93;5.28;;;20.60;99.90;;;;;;5027805;28;20129;-59
2021/07/22 07:39:58;;;;;;;7.65;4.95;;;20.70;99.90;;;;;;5029129;28;20174;-54
2021/07/22 07:42:25;;;;;;;7.68;4.85;;;20.70;99.90;;;;;;5028598;28;20132;-49
2021/07/22 07:44:54;;;;;;;8.40;4.80;;;20.80;99.90;;;;;;5030218;28;20045;-59
2021/07/22 07:47:20;;;;;;;13.07;8.90;;;20.90;99.90;;;;;;5030194;28;20409;-55
2021/07/22 07:49:49;;;;;;;7.68;4.80;;;21.00;99.90;;;;;;5029707;28;20049;-54
2021/07/22 07:52:15;;;;;;;6.85;4.53;;;21.20;99.90;;;;;;5032904;28;20052;-50
2021/07/22 07:54:42;;;;;;;10.50;4.75;;;21.10;99.90;;;;;;5029618;28;20052;-51
2021/07/22 07:57:20;;;;;;;8.45;4.72;;;21.10;98.60;;;;;;5043496;28;20053;-51
2021/07/22 07:59:48;;;;;;;10.82;5.00;;;21.20;99.30;;;;;;5029272;28;20045;-59
2021/07/22 08:02:18;;;;;;;10.45;4.63;;;21.20;98.40;;;;;;5028761;28;20049;-53
2021/07/22 08:04:46;;;;;;;6.75;4.47;;;21.30;98.20;;;;;;5027083;28;20054;-50
2021/07/22 08:07:15;;;;;;;6.90;4.63;;;21.20;97.10;;;;;;5027865;28;20526;-55
2021/07/22 08:09:47;;;;;;;7.78;4.80;;;21.10;97.30;;;;;;5029327;28;20451;-53
2021/07/22 08:12:13;;;;;;;;;;;21.30;96.70;;;;;;5029068;28;20049;-60
2021/07/22 08:14:43;;;;;;;7.30;4.75;;;21.20;95.30;;;;;;5030109;28;20011;-51
2021/07/22 08:17:14;;;;;;;6.63;4.72;;;21.30;97.90;;;;;;5028731;28;20154;-54
2021/07/22 08:19:40;;;;;;;8.18;4.38;;;21.30;95.30;;;;;;5028523;28;20052;-50
2021/07/22 08:22:13;;;;;;;5.82;4.25;;;21.50;95.30;;;;;;5043587;28;20057;-50
2021/07/22 08:24:39;;;;;;;8.27;6.03;;;21.50;93.20;;;;;;5030612;28;20053;-55
2021/07/22 08:27:10;;;;;;;8.60;6.00;;;21.50;93.50;;;;;;5028375;28;20510;-50
2021/07/22 08:29:42;;;;;;;6.43;4.57;;;21.90;92.20;;;;;;5043614;28;20057;-54
2021/07/22 08:32:09;;;;;;;6.82;4.40;;;22.10;90.80;;;;;;5032571;28;20052;-53
2021/07/22 08:34:37;;;;;;;6.90;4.50;;;22.10;90.40;;;;;;5028492;28;20068;-53
2021/07/22 08:37:09;;;;;;;6.70;4.10;;;22.10;88.10;;;;;;5035740;28;20129;-53
2021/07/22 08:39:40;;;;;;;8.98;4.50;;;22.00;86.50;;;;;;5029525;28;20049;-52
2021/07/22 08:42:11;;;;;;;7.07;5.03;;;21.80;85.00;;;;;;5026679;28;20152;-54
2021/07/22 08:44:43;;;;;;;6.78;4.25;;;21.60;82.90;;;;;;5028896;28;20080;-50
2021/07/22 08:47:11;;;;;;;5.22;4.65;;;21.50;81.40;;;;;;5037944;28;20053;-51
2021/07/22 08:49:39;;;;;;;7.18;4.78;;;21.40;84.90;;;;;;5046314;28;20046;-54
2021/07/22 08:52:10;;;;;;;9.75;5.18;;;21.30;84.50;;;;;;5044428;28;20156;-53
2021/07/22 08:54:37;;;;;;;8.82;4.68;;;21.30;85.80;;;;;;5028103;28;20136;-54
2021/07/22 08:57:09;;;;;;;6.70;4.53;;;21.30;85.20;;;;;;5028573;28;20068;-52
2021/07/22 08:59:36;;;;;;;19.08;17.15;;;21.20;84.90;;;;;;5027324;28;20041;-57
2021/07/22 09:02:04;;;;;;;5.93;4.32;;;21.30;85.60;;;;;;5013785;28;20077;-56
2021/07/22 09:04:54;;;;;;;6.80;5.00;;;21.40;85.70;;;;;;5027646;28;20053;-53
2021/07/22 09:07:21;;;;;;;6.90;5.07;;;21.50;84.90;;;;;;5028644;28;20068;-56
2021/07/22 09:10:20;;;;;;;8.30;5.60;;;21.50;85.00;;;;;;5027723;28;20429;-52
2021/07/22 09:12:49;;;;;;;6.63;5.15;;;22.00;82.80;;;;;;5011421;28;20045;-54
2021/07/22 09:15:26;;;;;;;6.00;4.70;;;22.00;82.50;;;;;;5023291;28;20543;-49
2021/07/22 09:17:52;;;;;;;12.45;11.15;;;21.90;75.50;;;;;;5025401;28;20061;-50
2021/07/22 09:20:29;;;;;;;8.20;4.85;;;22.00;80.30;;;;;;5007038;28;20063;-53
2021/07/22 09:22:56;;;;;;;11.95;8.85;;;22.10;79.50;;;;;;5009850;28;20067;-51
2021/07/22 09:25:44;;;;;;;6.80;5.05;;;22.10;79.30;;;;;;5008179;28;20262;-52
2021/07/22 09:28:25;;;;;;;;;;;22.20;77.90;;;;;;5015394;28;20106;-53
2021/07/22 09:31:03;;;;;;;8.82;6.75;;;22.00;79.60;;;;;;5018287;28;19932;-59
2021/07/22 09:33:37;;;;;;;6.72;4.88;;;22.10;78.10;;;;;;5024382;28;20502;-53
2021/07/22 09:36:04;;;;;;;7.38;5.28;;;22.20;76.20;;;;;;5020848;28;20574;-52
2021/07/22 09:38:30;;;;;;;8.05;5.32;;;22.00;74.60;;;;;;5024527;28;20409;-54
2021/07/22 09:40:57;;;;;;;6.57;5.00;;;22.10;76.00;;;;;;5024511;28;20092;-55
2021/07/22 09:43:37;;;;;;;6.43;4.63;;;22.10;76.80;;;;;;5024603;28;20088;-53
2021/07/22 09:46:03;;;;;;;7.30;4.70;;;22.30;74.80;;;;;;5025136;28;20064;-49
2021/07/22 09:48:29;;;;;;;7.60;5.05;;;22.40;74.90;;;;;;5023983;28;20513;-51
2021/07/22 09:50:55;;;;;;;12.27;10.88;;;22.40;73.20;;;;;;5030413;28;20103;-52
2021/07/22 09:53:23;;;;;;;5.95;4.90;;;22.50;72.30;;;;;;5027962;28;20049;-56
2021/07/22 09:55:54;;;;;;;6.45;5.15;;;23.30;68.60;;;;;;5042429;28;20125;-52
2021/07/22 09:58:21;;;;;;;5.43;4.47;;;23.30;66.90;;;;;;5027869;28;20045;-53
2021/07/22 10:00:51;;;;;;;6.28;5.15;;;23.20;67.90;;;;;;5027406;28;20693;-53
2021/07/22 10:03:20;;;;;;;7.80;5.57;;;22.90;68.50;;;;;;5027321;28;20188;-55
2021/07/22 10:05:51;;;;;;;5.57;4.65;;;23.10;69.20;;;;;;5027390;28;20052;-53
2021/07/22 10:08:22;;;;;;;5.93;4.70;;;23.10;67.90;;;;;;5026630;28;20056;-55
2021/07/22 10:10:56;;;;;;;6.95;4.32;;;22.80;66.60;;;;;;5027129;28;20049;-55
2021/07/22 10:13:27;;;;;;;5.72;4.50;;;22.70;65.30;;;;;;5027181;28;20049;-52
2021/07/22 10:15:59;;;;;;;7.15;4.32;;;23.20;66.10;;;;;;5042130;28;20069;-53
2021/07/22 10:18:28;;;;;;;6.82;5.78;;;24.20;65.90;;;;;;5030340;28;20068;-53
2021/07/22 10:20:59;;;;;;;5.50;4.43;;;24.80;60.70;;;;;;5026992;28;20057;-54
2021/07/22 10:23:25;;;;;;;;;;;25.50;58.20;;;;;;5027220;28;20056;-55
2021/07/22 10:25:51;;;;;;;6.25;4.22;;;26.00;58.20;;;;;;5042665;28;19931;-58
2021/07/22 10:28:18;;;;;;;6.15;4.63;;;26.20;57.50;;;;;;5030565;28;20057;-54
2021/07/22 10:30:49;;;;;;;5.93;3.70;;;27.00;55.50;;;;;;5030499;28;20073;-53
2021/07/22 10:33:19;;;;;;;6.47;4.18;;;27.60;50.90;;;;;;5030983;28;20473;-57
2021/07/22 10:35:50;;;;;;;7.35;4.82;;;26.90;52.20;;;;;;5030128;28;20045;-60
2021/07/22 10:38:27;;;;;;;6.30;4.07;;;26.80;52.30;;;;;;5031553;28;20751;-56
2021/07/22 10:40:59;;;;;;;12.05;10.80;;;25.90;54.20;;;;;;5018557;28;20053;-54
2021/07/22 10:43:36;;;;;;;7.25;4.80;;;25.30;54.30;;;;;;5022256;28;20049;-55
2021/07/22 10:46:09;;;;;;;8.35;6.10;;;25.30;55.00;;;;;;5027443;28;20065;-54
2021/07/22 10:48:40;;;;;;;9.77;6.78;;;25.80;57.50;;;;;;5031222;28;20076;-54
2021/07/22 10:51:11;;;;;;;8.95;7.32;;;26.20;54.40;;;;;;5030414;28;20107;-50
2021/07/22 10:53:38;;;;;;;8.48;7.43;;;26.80;55.10;;;;;;5031596;28;20041;-53
2021/07/22 10:56:06;;;;;;;15.30;13.73;;;27.30;52.30;;;;;;5046242;28;20057;-53
2021/07/22 10:58:33;;;;;;;8.88;5.75;;;27.00;52.90;;;;;;5030731;28;20045;-48
2021/07/22 11:01:03;;;;;;;10.88;9.57;;;26.40;53.30;;;;;;5031434;28;20168;-50
2021/07/22 11:03:33;;;;;;;;;;;25.80;53.00;;;;;;5030985;28;20046;-51
2021/07/22 11:06:00;;;;;;;5.47;4.07;;;25.80;52.60;;;;;;5030904;28;19932;-52
2021/07/22 11:08:29;;;;;;;6.40;3.90;;;26.60;54.10;;;;;;5029954;28;20073;-50
2021/07/22 11:11:03;;;;;;;4.78;3.88;;;27.00;53.50;;;;;;5030490;28;20519;-56
2021/07/22 11:13:36;;;;;;;6.43;4.05;;;27.10;51.80;;;;;;5029115;28;20056;-49
2021/07/22 11:16:04;;;;;;;6.35;3.67;;;27.70;52.60;;;;;;5032241;28;20042;-53
2021/07/22 11:18:49;;;;;;;5.88;3.42;;;26.90;49.90;;;;;;5028935;28;20084;-49
2021/07/22 11:21:19;;;;;;;8.88;3.60;;;26.60;50.30;;;;;;5030675;28;20053;-54
2021/07/22 11:24:15;;;;;;;4.47;3.58;;;26.10;51.90;;;;;;5029883;28;20144;-56
2021/07/22 11:26:43;;;;;;;5.90;3.72;;;26.20;53.50;;;;;;5029938;28;20049;-52
2021/07/22 11:29:11;;;;;;;4.45;3.00;;;26.40;52.10;;;;;;5030355;28;20053;-55
2021/07/22 11:31:49;;;;;;;6.82;3.50;;;26.90;52.00;;;;;;5029455;28;20045;-55
2021/07/22 11:34:27;;;;;;;6.07;3.03;;;27.50;51.10;;;;;;5026324;28;20072;-54
2021/07/22 11:36:56;;;;;;;4.15;3.20;;;27.70;50.20;;;;;;5028313;28;20046;-52
2021/07/22 11:39:31;;;;;;;4.20;2.97;;;28.00;48.30;;;;;;5027937;28;20049;-54
2021/07/22 11:42:08;;;;;;;4.50;3.53;;;28.20;46.50;;;;;;5030317;28;20045;-54
2021/07/22 11:44:35;;;;;;;4.25;2.72;;;28.60;46.50;;;;;;5029524;28;20049;-53
2021/07/22 11:47:01;;;;;;;4.28;2.95;;;28.20;47.40;;;;;;5027660;28;20072;-54
2021/07/22 11:49:34;;;;;;;5.22;2.80;;;27.50;48.50;;;;;;5029158;28;20171;-51
2021/07/22 11:52:00;;;;;;;4.25;2.75;;;27.00;48.00;;;;;;5028279;28;20061;-51
2021/07/22 11:54:27;;;;;;;5.28;3.00;;;26.60;48.60;;;;;;5026744;28;20049;-50
2021/07/22 11:56:58;;;;;;;4.80;2.90;;;26.60;48.60;;;;;;5029651;28;20080;-52
2021/07/22 11:59:33;;;;;;;5.55;2.97;;;27.00;48.60;;;;;;5043564;28;20158;-53
2021/07/22 12:02:00;;;;;;;4.88;2.92;;;27.40;47.60;;;;;;5027299;28;20072;-56
2021/07/22 12:04:34;;;;;;;5.60;2.70;;;27.40;47.40;;;;;;5026535;28;20103;-55
2021/07/22 12:07:07;;;;;;;4.40;2.90;;;27.70;46.90;;;;;;5027882;28;20045;-53
2021/07/22 12:09:33;;;;;;;4.32;2.88;;;27.70;47.20;;;;;;5027097;28;20127;-54
2021/07/22 12:12:02;;;;;;;6.47;4.97;;;27.40;46.50;;;;;;5012039;28;20050;-54
2021/07/22 12:14:29;;;;;;;14.20;12.82;;;27.90;48.10;;;;;;5029193;28;20057;-56
2021/07/22 12:16:57;;;;;;;5.45;3.75;;;27.90;47.30;;;;;;5028271;28;20056;-50
2021/07/22 12:19:25;;;;;;;5.03;3.75;;;27.30;47.70;;;;;;5026027;28;20054;-54
2021/07/22 12:22:13;;;;;;;5.75;3.58;;;27.10;48.50;;;;;;5028859;28;20056;-53
2021/07/22 12:24:39;;;;;;;8.98;6.55;;;27.00;48.20;;;;;;5026345;28;20053;-57
2021/07/22 12:27:05;;;;;;;10.55;8.98;;;27.30;49.20;;;;;;5020999;28;20109;-50
2021/07/22 12:29:32;;;;;;;7.40;5.30;;;27.60;47.70;;;;;;5026739;28;20475;-58
2021/07/22 12:32:07;;;;;;;6.63;4.38;;;27.90;48.40;;;;;;5028084;28;20057;-54
2021/07/22 12:34:37;;;;;;;7.22;3.85;;;27.40;46.90;;;;;;5031264;28;20048;-54
2021/07/22 12:37:03;;;;;;;5.22;3.75;;;27.10;47.40;;;;;;5047913;28;20505;-53
2021/07/22 12:39:30;;;;;;;6.85;3.88;;;26.80;48.10;;;;;;5034841;28;20061;-49
2021/07/22 12:42:08;;;;;;;9.95;3.58;;;27.10;48.60;;;;;;5027748;28;20083;-57
2021/07/22 12:44:43;;;;;;;5.15;3.47;;;26.90;47.10;;;;;;5017089;28;20062;-54
2021/07/22 12:47:32;;;;;;;5.15;3.50;;;26.90;49.90;;;;;;4972799;28;1087170;-45
2021/07/22 12:50:00;;;;;;;35.53;32.17;;;27.60;47.80;;;;;;5020500;28;20433;-52
2021/07/22 12:52:27;;;;;;;7.05;4.70;;;27.80;48.00;;;;;;5028586;28;20065;-52
2021/07/22 12:55:01;;;;;;;6.78;4.82;;;27.70;47.20;;;;;;5022956;28;20053;-49
2021/07/22 12:57:38;;;;;;;5.53;3.20;;;27.20;46.50;;;;;;5027879;28;20130;-47
2021/07/22 13:00:06;;;;;;;3.67;2.80;;;26.80;48.30;;;;;;5028737;28;20053;-50